sensor_id;sensor_type;location;lat;lon;timestamp;P1;durP1;ratioP1;P2;durP2;ratioP2
24435;SDS011;12616;52.470;13.436;2023-04-01T00:01:28;3.33;;;3.00;;
24435;SDS011;12616;52.470;13.436;2023-04-01T00:03:55;4.73;;;3.50;;
24435;SDS011;12616;52.470;13.436;2023-04-01T00:06:22;4.80;;;2.90;;
24435;SDS011;12616;52.470;13.436;2023-04-01T00:08:49;4.47;;;3.53;;
24435;SDS011;12616;52.470;13.436;2023-04-01T00:11:17;3.27;;;2.97;;
24435;SDS011;12616;52.470;13.436;2023-04-01T00:13:44;5.57;;;3.33;;
24435;SDS011;12616;52.470;13.436;2023-04-01T00:16:11;3.10;;;2.90;;
24435;SDS011;12616;52.470;13.436;2023-04-01T00:18:38;5.53;;;3.00;;
24435;SDS011;12616;52.470;13.436;2023-04-01T00:21:06;5.20;;;3.00;;
24435;SDS011;12616;52.470;13.436;2023-04-01T00:23:33;6.00;;;3.17;;
24435;SDS011;12616;52.470;13.436;2023-04-01T00:26:01;5.50;;;3.30;;
24435;SDS011;12616;52.470;13.436;2023-04-01T00:28:30;2.73;;;2.50;;
24435;SDS011;12616;52.470;13.436;2023-04-01T00:31:03;2.70;;;2.50;;
24435;SDS011;12616;52.470;13.436;2023-04-01T00:33:31;4.63;;;3.80;;
24435;SDS011;12616;52.470;13.436;2023-04-01T00:36:04;3.20;;;2.80;;
24435;SDS011;12616;52.470;13.436;2023-04-01T00:38:33;3.90;;;2.90;;
24435;SDS011;12616;52.470;13.436;2023-04-01T00:41:00;6.90;;;3.50;;
24435;SDS011;12616;52.470;13.436;2023-04-01T00:43:27;5.10;;;3.80;;
24435;SDS011;12616;52.470;13.436;2023-04-01T00:45:55;9.50;;;6.63;;
24435;SDS011;12616;52.470;13.436;2023-04-01T00:48:22;6.83;;;6.03;;
24435;SDS011;12616;52.470;13.436;2023-04-01T00:50:54;9.80;;;5.47;;
24435;SDS011;12616;52.470;13.436;2023-04-01T00:53:24;6.60;;;4.10;;
24435;SDS011;12616;52.470;13.436;2023-04-01T00:55:53;6.00;;;4.87;;
24435;SDS011;12616;52.470;13.436;2023-04-01T00:58:24;7.20;;;5.30;;
24435;SDS011;12616;52.470;13.436;2023-04-01T01:00:54;9.50;;;5.87;;
24435;SDS011;12616;52.470;13.436;2023-04-01T01:03:22;24.97;;;10.30;;
24435;SDS011;12616;52.470;13.436;2023-04-01T01:05:56;10.63;;;7.20;;
24435;SDS011;12616;52.470;13.436;2023-04-01T01:08:39;10.77;;;6.10;;
24435;SDS011;12616;52.470;13.436;2023-04-01T01:11:19;4.43;;;3.80;;
24435;SDS011;12616;52.470;13.436;2023-04-01T01:13:53;12.53;;;5.60;;
24435;SDS011;12616;52.470;13.436;2023-04-01T01:16:27;7.40;;;5.87;;
24435;SDS011;12616;52.470;13.436;2023-04-01T01:18:57;10.03;;;4.90;;
24435;SDS011;12616;52.470;13.436;2023-04-01T01:21:41;5.27;;;4.63;;
24435;SDS011;12616;52.470;13.436;2023-04-01T01:24:27;9.47;;;6.17;;
24435;SDS011;12616;52.470;13.436;2023-04-01T01:27:10;4.20;;;3.80;;
24435;SDS011;12616;52.470;13.436;2023-04-01T01:29:46;4.57;;;3.33;;
24435;SDS011;12616;52.470;13.436;2023-04-01T01:35:41;4.30;;;3.90;;
24435;SDS011;12616;52.470;13.436;2023-04-01T01:38:13;11.90;;;3.77;;
24435;SDS011;12616;52.470;13.436;2023-04-01T01:40:42;5.73;;;3.70;;
24435;SDS011;12616;52.470;13.436;2023-04-01T01:43:13;3.37;;;3.07;;
24435;SDS011;12616;52.470;13.436;2023-04-01T01:45:44;4.13;;;3.40;;
24435;SDS011;12616;52.470;13.436;2023-04-01T01:48:14;6.87;;;3.90;;
24435;SDS011;12616;52.470;13.436;2023-04-01T01:50:44;5.90;;;4.30;;
24435;SDS011;12616;52.470;13.436;2023-04-01T01:53:13;5.13;;;4.13;;
24435;SDS011;12616;52.470;13.436;2023-04-01T01:55:41;4.20;;;3.80;;
24435;SDS011;12616;52.470;13.436;2023-04-01T01:58:09;4.50;;;3.37;;
24435;SDS011;12616;52.470;13.436;2023-04-01T02:00:40;5.00;;;3.40;;
24435;SDS011;12616;52.470;13.436;2023-04-01T02:03:12;4.80;;;3.27;;
24435;SDS011;12616;52.470;13.436;2023-04-01T02:05:40;5.03;;;3.53;;
24435;SDS011;12616;52.470;13.436;2023-04-01T02:08:10;4.67;;;3.60;;
24435;SDS011;12616;52.470;13.436;2023-04-01T02:10:41;6.83;;;4.13;;
24435;SDS011;12616;52.470;13.436;2023-04-01T02:13:13;4.03;;;3.63;;
24435;SDS011;12616;52.470;13.436;2023-04-01T02:15:45;7.33;;;4.17;;
24435;SDS011;12616;52.470;13.436;2023-04-01T02:18:15;8.67;;;4.00;;
24435;SDS011;12616;52.470;13.436;2023-04-01T02:20:44;5.93;;;3.63;;
24435;SDS011;12616;52.470;13.436;2023-04-01T02:23:13;5.00;;;3.63;;
24435;SDS011;12616;52.470;13.436;2023-04-01T02:25:40;7.13;;;4.07;;
24435;SDS011;12616;52.470;13.436;2023-04-01T02:28:09;6.37;;;3.20;;
24435;SDS011;12616;52.470;13.436;2023-04-01T02:30:38;6.90;;;3.70;;
24435;SDS011;12616;52.470;13.436;2023-04-01T02:33:07;5.10;;;3.80;;
24435;SDS011;12616;52.470;13.436;2023-04-01T02:35:35;6.33;;;3.77;;
24435;SDS011;12616;52.470;13.436;2023-04-01T02:38:02;5.40;;;3.80;;
24435;SDS011;12616;52.470;13.436;2023-04-01T02:40:41;4.27;;;3.20;;
24435;SDS011;12616;52.470;13.436;2023-04-01T02:43:10;4.67;;;3.60;;
24435;SDS011;12616;52.470;13.436;2023-04-01T02:45:37;5.73;;;4.20;;
24435;SDS011;12616;52.470;13.436;2023-04-01T02:48:04;5.20;;;3.40;;
24435;SDS011;12616;52.470;13.436;2023-04-01T02:50:32;5.43;;;3.70;;
24435;SDS011;12616;52.470;13.436;2023-04-01T02:52:59;4.97;;;4.10;;
24435;SDS011;12616;52.470;13.436;2023-04-01T02:55:27;6.57;;;5.33;;
24435;SDS011;12616;52.470;13.436;2023-04-01T02:57:56;6.77;;;4.23;;
24435;SDS011;12616;52.470;13.436;2023-04-01T03:00:23;8.83;;;5.50;;
24435;SDS011;12616;52.470;13.436;2023-04-01T03:02:50;9.90;;;5.80;;
24435;SDS011;12616;52.470;13.436;2023-04-01T03:05:17;5.87;;;5.07;;
24435;SDS011;12616;52.470;13.436;2023-04-01T03:07:44;9.13;;;5.73;;
24435;SDS011;12616;52.470;13.436;2023-04-01T03:10:11;10.20;;;7.03;;
24435;SDS011;12616;52.470;13.436;2023-04-01T03:12:38;8.30;;;6.90;;
24435;SDS011;12616;52.470;13.436;2023-04-01T03:15:08;6.60;;;5.50;;
24435;SDS011;12616;52.470;13.436;2023-04-01T03:17:36;8.00;;;5.87;;
24435;SDS011;12616;52.470;13.436;2023-04-01T03:20:04;23.57;;;10.20;;
24435;SDS011;12616;52.470;13.436;2023-04-01T03:22:33;22.30;;;10.40;;
24435;SDS011;12616;52.470;13.436;2023-04-01T03:25:00;14.90;;;8.97;;
24435;SDS011;12616;52.470;13.436;2023-04-01T03:27:27;11.33;;;7.80;;
24435;SDS011;12616;52.470;13.436;2023-04-01T03:29:54;26.60;;;8.23;;
24435;SDS011;12616;52.470;13.436;2023-04-01T03:32:22;12.70;;;7.43;;
24435;SDS011;12616;52.470;13.436;2023-04-01T03:34:49;10.27;;;7.00;;
24435;SDS011;12616;52.470;13.436;2023-04-01T03:37:15;10.80;;;6.10;;
24435;SDS011;12616;52.470;13.436;2023-04-01T03:39:42;9.43;;;6.73;;
24435;SDS011;12616;52.470;13.436;2023-04-01T03:42:10;9.77;;;6.80;;
24435;SDS011;12616;52.470;13.436;2023-04-01T03:44:37;7.57;;;6.37;;
24435;SDS011;12616;52.470;13.436;2023-04-01T03:47:04;9.53;;;6.53;;
24435;SDS011;12616;52.470;13.436;2023-04-01T03:49:32;9.30;;;6.23;;
24435;SDS011;12616;52.470;13.436;2023-04-01T03:51:59;8.70;;;6.40;;
24435;SDS011;12616;52.470;13.436;2023-04-01T03:54:26;7.33;;;6.47;;
24435;SDS011;12616;52.470;13.436;2023-04-01T03:56:53;7.47;;;6.50;;
24435;SDS011;12616;52.470;13.436;2023-04-01T03:59:20;11.60;;;8.73;;
24435;SDS011;12616;52.470;13.436;2023-04-01T04:01:47;10.50;;;7.00;;
24435;SDS011;12616;52.470;13.436;2023-04-01T04:04:14;7.00;;;6.23;;
24435;SDS011;12616;52.470;13.436;2023-04-01T04:06:42;9.30;;;6.80;;
24435;SDS011;12616;52.470;13.436;2023-04-01T04:09:09;7.43;;;6.53;;
24435;SDS011;12616;52.470;13.436;2023-04-01T04:11:36;9.30;;;7.10;;
24435;SDS011;12616;52.470;13.436;2023-04-01T04:14:03;10.30;;;8.63;;
24435;SDS011;12616;52.470;13.436;2023-04-01T04:16:31;13.10;;;8.60;;
24435;SDS011;12616;52.470;13.436;2023-04-01T04:18:57;11.83;;;8.57;;
24435;SDS011;12616;52.470;13.436;2023-04-01T04:21:25;12.17;;;8.60;;
24435;SDS011;12616;52.470;13.436;2023-04-01T04:23:53;15.43;;;9.80;;
24435;SDS011;12616;52.470;13.436;2023-04-01T04:26:20;15.27;;;11.07;;
24435;SDS011;12616;52.470;13.436;2023-04-01T04:28:48;15.93;;;12.90;;
24435;SDS011;12616;52.470;13.436;2023-04-01T04:31:18;20.73;;;14.50;;
24435;SDS011;12616;52.470;13.436;2023-04-01T04:33:46;20.47;;;11.80;;
24435;SDS011;12616;52.470;13.436;2023-04-01T04:36:12;10.10;;;6.70;;
24435;SDS011;12616;52.470;13.436;2023-04-01T04:38:39;12.67;;;6.20;;
24435;SDS011;12616;52.470;13.436;2023-04-01T04:41:09;9.83;;;5.93;;
24435;SDS011;12616;52.470;13.436;2023-04-01T04:43:37;11.97;;;6.80;;
24435;SDS011;12616;52.470;13.436;2023-04-01T04:46:05;5.63;;;5.10;;
24435;SDS011;12616;52.470;13.436;2023-04-01T04:48:32;6.80;;;5.80;;
24435;SDS011;12616;52.470;13.436;2023-04-01T04:50:59;5.53;;;5.00;;
24435;SDS011;12616;52.470;13.436;2023-04-01T04:53:26;7.50;;;5.53;;
24435;SDS011;12616;52.470;13.436;2023-04-01T04:55:53;10.53;;;6.00;;
24435;SDS011;12616;52.470;13.436;2023-04-01T04:58:21;11.30;;;5.97;;
24435;SDS011;12616;52.470;13.436;2023-04-01T05:00:48;13.03;;;7.67;;
24435;SDS011;12616;52.470;13.436;2023-04-01T05:03:15;11.40;;;7.67;;
24435;SDS011;12616;52.470;13.436;2023-04-01T05:05:47;12.40;;;9.60;;
24435;SDS011;12616;52.470;13.436;2023-04-01T05:08:15;11.87;;;9.13;;
24435;SDS011;12616;52.470;13.436;2023-04-01T05:10:42;10.53;;;7.60;;
24435;SDS011;12616;52.470;13.436;2023-04-01T05:13:09;9.20;;;8.30;;
24435;SDS011;12616;52.470;13.436;2023-04-01T05:15:40;9.00;;;8.10;;
24435;SDS011;12616;52.470;13.436;2023-04-01T05:18:07;11.20;;;8.10;;
24435;SDS011;12616;52.470;13.436;2023-04-01T05:20:34;15.10;;;7.27;;
24435;SDS011;12616;52.470;13.436;2023-04-01T05:23:01;10.47;;;7.30;;
24435;SDS011;12616;52.470;13.436;2023-04-01T05:25:27;9.60;;;7.50;;
24435;SDS011;12616;52.470;13.436;2023-04-01T05:27:54;9.13;;;8.20;;
24435;SDS011;12616;52.470;13.436;2023-04-01T05:30:21;10.47;;;7.97;;
24435;SDS011;12616;52.470;13.436;2023-04-01T05:32:49;10.37;;;7.40;;
24435;SDS011;12616;52.470;13.436;2023-04-01T05:35:16;8.60;;;7.53;;
24435;SDS011;12616;52.470;13.436;2023-04-01T05:37:43;9.13;;;6.57;;
24435;SDS011;12616;52.470;13.436;2023-04-01T05:40:10;11.87;;;8.70;;
24435;SDS011;12616;52.470;13.436;2023-04-01T05:42:37;11.07;;;8.03;;
24435;SDS011;12616;52.470;13.436;2023-04-01T05:45:04;8.20;;;6.47;;
24435;SDS011;12616;52.470;13.436;2023-04-01T05:47:32;6.87;;;4.77;;
24435;SDS011;12616;52.470;13.436;2023-04-01T05:50:00;9.10;;;4.60;;
24435;SDS011;12616;52.470;13.436;2023-04-01T05:52:27;7.40;;;4.33;;
24435;SDS011;12616;52.470;13.436;2023-04-01T05:54:54;7.40;;;5.63;;
24435;SDS011;12616;52.470;13.436;2023-04-01T05:57:20;6.47;;;5.87;;
24435;SDS011;12616;52.470;13.436;2023-04-01T05:59:47;8.50;;;6.27;;
24435;SDS011;12616;52.470;13.436;2023-04-01T06:02:15;8.67;;;7.83;;
24435;SDS011;12616;52.470;13.436;2023-04-01T06:04:43;8.23;;;6.97;;
24435;SDS011;12616;52.470;13.436;2023-04-01T06:07:12;11.57;;;9.07;;
24435;SDS011;12616;52.470;13.436;2023-04-01T06:09:40;11.80;;;7.63;;
24435;SDS011;12616;52.470;13.436;2023-04-01T06:12:12;11.03;;;7.40;;
24435;SDS011;12616;52.470;13.436;2023-04-01T06:14:53;13.90;;;7.17;;
24435;SDS011;12616;52.470;13.436;2023-04-01T06:17:30;14.67;;;7.23;;
24435;SDS011;12616;52.470;13.436;2023-04-01T06:20:11;10.10;;;6.30;;
24435;SDS011;12616;52.470;13.436;2023-04-01T06:22:49;7.20;;;5.90;;
24435;SDS011;12616;52.470;13.436;2023-04-01T06:25:35;10.73;;;6.90;;
24435;SDS011;12616;52.470;13.436;2023-04-01T06:28:28;10.17;;;6.60;;
24435;SDS011;12616;52.470;13.436;2023-04-01T06:31:17;7.70;;;6.87;;
24435;SDS011;12616;52.470;13.436;2023-04-01T06:33:55;9.40;;;6.60;;
24435;SDS011;12616;52.470;13.436;2023-04-01T06:36:38;11.37;;;6.30;;
24435;SDS011;12616;52.470;13.436;2023-04-01T06:39:29;11.93;;;6.57;;
24435;SDS011;12616;52.470;13.436;2023-04-01T06:42:11;10.13;;;6.73;;
24435;SDS011;12616;52.470;13.436;2023-04-01T06:44:54;7.00;;;6.40;;
24435;SDS011;12616;52.470;13.436;2023-04-01T06:47:29;7.60;;;6.10;;
24435;SDS011;12616;52.470;13.436;2023-04-01T06:50:07;9.60;;;6.87;;
24435;SDS011;12616;52.470;13.436;2023-04-01T06:52:46;7.73;;;6.43;;
24435;SDS011;12616;52.470;13.436;2023-04-01T06:55:27;11.67;;;8.00;;
24435;SDS011;12616;52.470;13.436;2023-04-01T06:58:10;8.90;;;6.70;;
24435;SDS011;12616;52.470;13.436;2023-04-01T07:00:44;9.30;;;6.83;;
24435;SDS011;12616;52.470;13.436;2023-04-01T07:03:16;10.93;;;7.77;;
24435;SDS011;12616;52.470;13.436;2023-04-01T07:05:47;10.53;;;6.93;;
24435;SDS011;12616;52.470;13.436;2023-04-01T07:08:16;11.03;;;6.53;;
24435;SDS011;12616;52.470;13.436;2023-04-01T07:10:49;9.00;;;6.70;;
24435;SDS011;12616;52.470;13.436;2023-04-01T07:13:22;10.00;;;6.37;;
24435;SDS011;12616;52.470;13.436;2023-04-01T07:16:03;11.30;;;6.70;;
24435;SDS011;12616;52.470;13.436;2023-04-01T07:18:37;8.93;;;7.03;;
24435;SDS011;12616;52.470;13.436;2023-04-01T07:21:10;9.00;;;7.00;;
24435;SDS011;12616;52.470;13.436;2023-04-01T07:23:46;9.50;;;5.73;;
24435;SDS011;12616;52.470;13.436;2023-04-01T07:26:17;8.93;;;6.50;;
24435;SDS011;12616;52.470;13.436;2023-04-01T07:28:46;12.00;;;5.60;;
24435;SDS011;12616;52.470;13.436;2023-04-01T07:31:16;7.47;;;5.63;;
24435;SDS011;12616;52.470;13.436;2023-04-01T07:33:51;8.00;;;5.63;;
24435;SDS011;12616;52.470;13.436;2023-04-01T07:36:28;5.17;;;4.60;;
24435;SDS011;12616;52.470;13.436;2023-04-01T07:39:06;5.20;;;4.70;;
24435;SDS011;12616;52.470;13.436;2023-04-01T07:41:48;7.23;;;4.70;;
24435;SDS011;12616;52.470;13.436;2023-04-01T07:44:25;5.33;;;4.00;;
24435;SDS011;12616;52.470;13.436;2023-04-01T07:47:10;4.73;;;3.83;;
24435;SDS011;12616;52.470;13.436;2023-04-01T07:49:49;8.27;;;4.90;;
24435;SDS011;12616;52.470;13.436;2023-04-01T07:52:26;9.10;;;3.97;;
24435;SDS011;12616;52.470;13.436;2023-04-01T07:54:59;4.87;;;4.37;;
24435;SDS011;12616;52.470;13.436;2023-04-01T07:57:38;8.37;;;3.53;;
24435;SDS011;12616;52.470;13.436;2023-04-01T08:00:10;4.63;;;3.73;;
24435;SDS011;12616;52.470;13.436;2023-04-01T08:02:51;4.10;;;3.80;;
24435;SDS011;12616;52.470;13.436;2023-04-01T08:05:29;7.20;;;4.30;;
24435;SDS011;12616;52.470;13.436;2023-04-01T08:08:04;3.67;;;3.47;;
24435;SDS011;12616;52.470;13.436;2023-04-01T08:10:39;3.93;;;3.53;;
24435;SDS011;12616;52.470;13.436;2023-04-01T08:13:13;3.90;;;3.57;;
24435;SDS011;12616;52.470;13.436;2023-04-01T08:15:48;4.83;;;3.40;;
24435;SDS011;12616;52.470;13.436;2023-04-01T08:18:21;7.17;;;3.77;;
24435;SDS011;12616;52.470;13.436;2023-04-01T08:20:58;4.40;;;4.00;;
24435;SDS011;12616;52.470;13.436;2023-04-01T08:23:27;4.07;;;3.20;;
24435;SDS011;12616;52.470;13.436;2023-04-01T08:25:58;4.07;;;3.60;;
24435;SDS011;12616;52.470;13.436;2023-04-01T08:28:32;9.70;;;3.23;;
24435;SDS011;12616;52.470;13.436;2023-04-01T08:31:04;9.23;;;3.97;;
24435;SDS011;12616;52.470;13.436;2023-04-01T08:33:35;7.30;;;3.33;;
24435;SDS011;12616;52.470;13.436;2023-04-01T08:36:05;4.80;;;4.20;;
24435;SDS011;12616;52.470;13.436;2023-04-01T08:38:38;8.10;;;5.37;;
24435;SDS011;12616;52.470;13.436;2023-04-01T08:41:20;5.20;;;3.50;;
24435;SDS011;12616;52.470;13.436;2023-04-01T08:50:29;4.20;;;3.73;;
24435;SDS011;12616;52.470;13.436;2023-04-01T08:53:15;5.30;;;3.97;;
24435;SDS011;12616;52.470;13.436;2023-04-01T08:55:56;9.10;;;6.43;;
24435;SDS011;12616;52.470;13.436;2023-04-01T08:58:36;6.03;;;5.40;;
24435;SDS011;12616;52.470;13.436;2023-04-01T09:01:19;8.90;;;6.37;;
24435;SDS011;12616;52.470;13.436;2023-04-01T09:04:03;8.20;;;5.97;;
24435;SDS011;12616;52.470;13.436;2023-04-01T09:06:46;9.57;;;7.70;;
24435;SDS011;12616;52.470;13.436;2023-04-01T09:12:17;8.67;;;7.07;;
24435;SDS011;12616;52.470;13.436;2023-04-01T09:15:04;6.80;;;6.20;;
24435;SDS011;12616;52.470;13.436;2023-04-01T09:17:46;6.60;;;5.73;;
24435;SDS011;12616;52.470;13.436;2023-04-01T09:20:38;6.60;;;5.73;;
24435;SDS011;12616;52.470;13.436;2023-04-01T09:23:23;10.40;;;6.80;;
24435;SDS011;12616;52.470;13.436;2023-04-01T09:26:04;8.90;;;6.33;;
24435;SDS011;12616;52.470;13.436;2023-04-01T09:28:44;8.57;;;6.67;;
24435;SDS011;12616;52.470;13.436;2023-04-01T09:31:23;8.60;;;7.03;;
24435;SDS011;12616;52.470;13.436;2023-04-01T09:37:02;8.90;;;6.80;;
24435;SDS011;12616;52.470;13.436;2023-04-01T09:39:46;10.27;;;6.37;;
24435;SDS011;12616;52.470;13.436;2023-04-01T09:42:42;8.77;;;7.13;;
24435;SDS011;12616;52.470;13.436;2023-04-01T09:45:16;8.97;;;6.47;;
24435;SDS011;12616;52.470;13.436;2023-04-01T09:47:57;10.27;;;7.87;;
24435;SDS011;12616;52.470;13.436;2023-04-01T09:50:43;11.80;;;8.70;;
24435;SDS011;12616;52.470;13.436;2023-04-01T09:53:31;12.10;;;8.57;;
24435;SDS011;12616;52.470;13.436;2023-04-01T09:56:19;13.73;;;9.57;;
24435;SDS011;12616;52.470;13.436;2023-04-01T10:02:13;14.03;;;10.17;;
24435;SDS011;12616;52.470;13.436;2023-04-01T10:05:10;14.93;;;10.07;;
24435;SDS011;12616;52.470;13.436;2023-04-01T10:08:23;15.90;;;10.63;;
24435;SDS011;12616;52.470;13.436;2023-04-01T10:23:56;15.77;;;11.63;;
24435;SDS011;12616;52.470;13.436;2023-04-01T10:26:44;16.03;;;11.60;;
24435;SDS011;12616;52.470;13.436;2023-04-01T10:29:51;17.73;;;11.47;;
24435;SDS011;12616;52.470;13.436;2023-04-01T10:32:49;14.63;;;11.73;;
24435;SDS011;12616;52.470;13.436;2023-04-01T10:39:04;16.90;;;13.10;;
24435;SDS011;12616;52.470;13.436;2023-04-01T10:42:00;14.37;;;12.60;;
24435;SDS011;12616;52.470;13.436;2023-04-01T10:45:05;15.23;;;12.00;;
24435;SDS011;12616;52.470;13.436;2023-04-01T10:51:10;13.47;;;11.10;;
24435;SDS011;12616;52.470;13.436;2023-04-01T10:54:00;11.17;;;8.97;;
24435;SDS011;12616;52.470;13.436;2023-04-01T10:56:44;11.70;;;9.30;;
24435;SDS011;12616;52.470;13.436;2023-04-01T10:59:27;13.20;;;11.17;;
24435;SDS011;12616;52.470;13.436;2023-04-01T11:02:36;13.80;;;9.87;;
24435;SDS011;12616;52.470;13.436;2023-04-01T11:11:34;9.70;;;7.10;;
24435;SDS011;12616;52.470;13.436;2023-04-01T11:24:08;6.57;;;5.87;;
24435;SDS011;12616;52.470;13.436;2023-04-01T11:26:51;5.67;;;5.10;;
24435;SDS011;12616;52.470;13.436;2023-04-01T11:32:42;10.60;;;5.67;;
24435;SDS011;12616;52.470;13.436;2023-04-01T11:35:22;7.30;;;4.90;;
24435;SDS011;12616;52.470;13.436;2023-04-01T11:38:09;6.97;;;6.27;;
24435;SDS011;12616;52.470;13.436;2023-04-01T11:40:47;5.53;;;5.00;;
24435;SDS011;12616;52.470;13.436;2023-04-01T11:43:26;8.17;;;7.40;;
24435;SDS011;12616;52.470;13.436;2023-04-01T11:51:25;7.33;;;6.60;;
24435;SDS011;12616;52.470;13.436;2023-04-01T11:57:31;6.07;;;5.40;;
24435;SDS011;12616;52.470;13.436;2023-04-01T12:03:43;5.67;;;4.77;;
24435;SDS011;12616;52.470;13.436;2023-04-01T12:06:31;5.60;;;4.60;;
24435;SDS011;12616;52.470;13.436;2023-04-01T12:09:09;5.40;;;4.90;;
24435;SDS011;12616;52.470;13.436;2023-04-01T12:11:45;7.20;;;5.20;;
24435;SDS011;12616;52.470;13.436;2023-04-01T12:14:19;5.70;;;5.20;;
24435;SDS011;12616;52.470;13.436;2023-04-01T12:16:55;5.03;;;4.43;;
24435;SDS011;12616;52.470;13.436;2023-04-01T12:19:30;5.90;;;5.00;;
24435;SDS011;12616;52.470;13.436;2023-04-01T12:22:10;6.07;;;5.47;;
24435;SDS011;12616;52.470;13.436;2023-04-01T12:24:49;5.50;;;5.00;;
24435;SDS011;12616;52.470;13.436;2023-04-01T12:27:35;6.20;;;5.70;;
24435;SDS011;12616;52.470;13.436;2023-04-01T12:30:15;6.00;;;5.40;;
24435;SDS011;12616;52.470;13.436;2023-04-01T12:32:54;5.90;;;5.33;;
24435;SDS011;12616;52.470;13.436;2023-04-01T12:35:34;5.60;;;5.10;;
24435;SDS011;12616;52.470;13.436;2023-04-01T12:38:20;7.30;;;6.23;;
24435;SDS011;12616;52.470;13.436;2023-04-01T12:40:59;7.70;;;6.97;;
24435;SDS011;12616;52.470;13.436;2023-04-01T12:44:04;7.97;;;6.87;;
24435;SDS011;12616;52.470;13.436;2023-04-01T12:46:49;6.33;;;5.73;;
24435;SDS011;12616;52.470;13.436;2023-04-01T12:49:42;7.30;;;6.60;;
24435;SDS011;12616;52.470;13.436;2023-04-01T12:52:25;7.40;;;6.67;;
24435;SDS011;12616;52.470;13.436;2023-04-01T12:55:29;6.93;;;6.23;;
24435;SDS011;12616;52.470;13.436;2023-04-01T13:04:34;6.70;;;5.70;;
24435;SDS011;12616;52.470;13.436;2023-04-01T13:11:30;6.17;;;5.63;;
24435;SDS011;12616;52.470;13.436;2023-04-01T13:21:52;8.43;;;7.10;;
24435;SDS011;12616;52.470;13.436;2023-04-01T13:24:28;8.70;;;7.53;;
24435;SDS011;12616;52.470;13.436;2023-04-01T13:30:04;11.03;;;7.37;;
24435;SDS011;12616;52.470;13.436;2023-04-01T13:32:49;9.53;;;8.10;;
24435;SDS011;12616;52.470;13.436;2023-04-01T13:35:26;8.87;;;7.97;;
24435;SDS011;12616;52.470;13.436;2023-04-01T13:38:08;10.30;;;7.67;;
24435;SDS011;12616;52.470;13.436;2023-04-01T13:40:49;9.83;;;8.70;;
24435;SDS011;12616;52.470;13.436;2023-04-01T13:43:25;10.80;;;8.50;;
24435;SDS011;12616;52.470;13.436;2023-04-01T13:52:30;7.50;;;6.80;;
24435;SDS011;12616;52.470;13.436;2023-04-01T13:58:04;7.93;;;7.23;;
24435;SDS011;12616;52.470;13.436;2023-04-01T14:00:50;7.83;;;7.03;;
24435;SDS011;12616;52.470;13.436;2023-04-01T14:03:30;7.93;;;7.10;;
24435;SDS011;12616;52.470;13.436;2023-04-01T14:06:11;9.37;;;8.47;;
24435;SDS011;12616;52.470;13.436;2023-04-01T14:08:51;11.10;;;8.60;;
24435;SDS011;12616;52.470;13.436;2023-04-01T14:11:31;6.93;;;6.23;;
24435;SDS011;12616;52.470;13.436;2023-04-01T14:14:05;9.70;;;7.90;;
24435;SDS011;12616;52.470;13.436;2023-04-01T14:19:44;8.17;;;7.40;;
24435;SDS011;12616;52.470;13.436;2023-04-01T14:22:25;7.07;;;6.40;;
24435;SDS011;12616;52.470;13.436;2023-04-01T14:28:08;11.10;;;9.13;;
24435;SDS011;12616;52.470;13.436;2023-04-01T14:30:43;12.10;;;9.03;;
24435;SDS011;12616;52.470;13.436;2023-04-01T14:33:40;9.03;;;7.90;;
24435;SDS011;12616;52.470;13.436;2023-04-01T14:36:25;8.97;;;8.07;;
24435;SDS011;12616;52.470;13.436;2023-04-01T14:39:07;9.40;;;8.50;;
24435;SDS011;12616;52.470;13.436;2023-04-01T14:41:47;8.77;;;7.93;;
24435;SDS011;12616;52.470;13.436;2023-04-01T14:44:29;9.67;;;8.17;;
24435;SDS011;12616;52.470;13.436;2023-04-01T14:47:42;9.13;;;7.90;;
24435;SDS011;12616;52.470;13.436;2023-04-01T14:50:15;10.68;;;8.32;;
24435;SDS011;12616;52.470;13.436;2023-04-01T14:52:46;9.17;;;7.70;;
24435;SDS011;12616;52.470;13.436;2023-04-01T14:55:25;7.43;;;6.73;;
24435;SDS011;12616;52.470;13.436;2023-04-01T14:58:09;6.97;;;6.27;;
24435;SDS011;12616;52.470;13.436;2023-04-01T15:00:41;6.73;;;6.03;;
24435;SDS011;12616;52.470;13.436;2023-04-01T15:03:25;10.03;;;7.03;;
24435;SDS011;12616;52.470;13.436;2023-04-01T15:06:00;6.90;;;5.87;;
24435;SDS011;12616;52.470;13.436;2023-04-01T15:08:47;8.50;;;7.60;;
24435;SDS011;12616;52.470;13.436;2023-04-01T15:11:24;8.90;;;8.00;;
24435;SDS011;12616;52.470;13.436;2023-04-01T15:14:09;9.93;;;8.17;;
24435;SDS011;12616;52.470;13.436;2023-04-01T15:16:51;11.70;;;7.67;;
24435;SDS011;12616;52.470;13.436;2023-04-01T15:19:29;8.70;;;7.87;;
24435;SDS011;12616;52.470;13.436;2023-04-01T15:22:23;7.30;;;6.60;;
24435;SDS011;12616;52.470;13.436;2023-04-01T15:25:04;7.40;;;6.57;;
24435;SDS011;12616;52.470;13.436;2023-04-01T15:27:44;7.55;;;6.75;;
24435;SDS011;12616;52.470;13.436;2023-04-01T15:30:21;7.87;;;6.93;;
24435;SDS011;12616;52.470;13.436;2023-04-01T15:33:13;7.77;;;7.00;;
24435;SDS011;12616;52.470;13.436;2023-04-01T15:35:57;9.27;;;8.38;;
24435;SDS011;12616;52.470;13.436;2023-04-01T15:38:34;10.50;;;9.40;;
24435;SDS011;12616;52.470;13.436;2023-04-01T15:41:11;9.10;;;8.20;;
24435;SDS011;12616;52.470;13.436;2023-04-01T15:43:42;13.17;;;10.67;;
24435;SDS011;12616;52.470;13.436;2023-04-01T15:46:17;11.53;;;9.40;;
24435;SDS011;12616;52.470;13.436;2023-04-01T15:49:03;9.73;;;8.73;;
24435;SDS011;12616;52.470;13.436;2023-04-01T15:51:44;7.78;;;7.07;;
24435;SDS011;12616;52.470;13.436;2023-04-01T15:54:25;8.80;;;7.90;;
24435;SDS011;12616;52.470;13.436;2023-04-01T15:57:20;9.82;;;7.55;;
24435;SDS011;12616;52.470;13.436;2023-04-01T16:02:47;14.40;;;12.83;;
24435;SDS011;12616;52.470;13.436;2023-04-01T16:05:22;6.22;;;5.63;;
24435;SDS011;12616;52.470;13.436;2023-04-01T16:08:14;8.70;;;6.88;;
24435;SDS011;12616;52.470;13.436;2023-04-01T16:10:59;6.72;;;6.05;;
24435;SDS011;12616;52.470;13.436;2023-04-01T16:13:42;7.25;;;6.00;;
24435;SDS011;12616;52.470;13.436;2023-04-01T16:16:17;9.10;;;8.20;;
24435;SDS011;12616;52.470;13.436;2023-04-01T16:19:01;8.43;;;7.65;;
24435;SDS011;12616;52.470;13.436;2023-04-01T16:21:42;9.52;;;7.50;;
24435;SDS011;12616;52.470;13.436;2023-04-01T16:24:16;8.60;;;7.80;;
24435;SDS011;12616;52.470;13.436;2023-04-01T16:26:55;10.40;;;9.40;;
24435;SDS011;12616;52.470;13.436;2023-04-01T16:29:32;10.30;;;9.30;;
24435;SDS011;12616;52.470;13.436;2023-04-01T16:32:14;10.18;;;7.88;;
24435;SDS011;12616;52.470;13.436;2023-04-01T16:35:17;10.35;;;9.02;;
24435;SDS011;12616;52.470;13.436;2023-04-01T16:37:52;10.30;;;9.30;;
24435;SDS011;12616;52.470;13.436;2023-04-01T16:40:33;10.35;;;9.10;;
24435;SDS011;12616;52.470;13.436;2023-04-01T16:43:11;9.00;;;7.57;;
24435;SDS011;12616;52.470;13.436;2023-04-01T16:45:45;9.02;;;8.20;;
24435;SDS011;12616;52.470;13.436;2023-04-01T16:48:21;9.73;;;8.82;;
24435;SDS011;12616;52.470;13.436;2023-04-01T16:50:58;9.02;;;8.13;;
24435;SDS011;12616;52.470;13.436;2023-04-01T16:53:30;9.63;;;8.73;;
24435;SDS011;12616;52.470;13.436;2023-04-01T16:56:08;9.10;;;8.10;;
24435;SDS011;12616;52.470;13.436;2023-04-01T16:58:41;9.23;;;8.32;;
24435;SDS011;12616;52.470;13.436;2023-04-01T17:04:12;8.60;;;7.80;;
24435;SDS011;12616;52.470;13.436;2023-04-01T17:06:45;8.82;;;7.93;;
24435;SDS011;12616;52.470;13.436;2023-04-01T17:09:22;8.38;;;7.60;;
24435;SDS011;12616;52.470;13.436;2023-04-01T17:12:01;9.00;;;8.30;;
24435;SDS011;12616;52.470;13.436;2023-04-01T17:14:36;9.40;;;8.20;;